createdAt,value
2023-04-26T00:00:10.095Z,100443.84
2023-04-26T00:02:38.681Z,100445.63
2023-04-26T00:05:09.520Z,100447.44
2023-04-26T00:07:39.221Z,100446.47
2023-04-26T00:10:08.726Z,100440.22
2023-04-26T00:12:37.785Z,100442.97
2023-04-26T00:15:09.538Z,100437.56
2023-04-26T00:17:37.953Z,100453.97
2023-04-26T00:20:10.512Z,100449.03
2023-04-26T00:22:39.819Z,100458.03
2023-04-26T00:25:09.229Z,100459.81
2023-04-26T00:27:37.748Z,100461.97
2023-04-26T00:30:10.615Z,100460.16
2023-04-26T00:32:39.487Z,100468.03
2023-04-26T00:35:10.310Z,100467.69
2023-04-26T00:37:38.713Z,100470.13
2023-04-26T00:40:08.918Z,100462.44
2023-04-26T00:42:37.356Z,100463.81
2023-04-26T00:45:08.929Z,100461.63
2023-04-26T00:47:37.557Z,100465.34
2023-04-26T00:50:08.566Z,100463.88
2023-04-26T00:52:37.194Z,100461.19
2023-04-26T00:55:07.459Z,100464.16
2023-04-26T00:57:35.922Z,100444.59
2023-04-26T01:00:05.722Z,100461.00
2023-04-26T01:02:35.893Z,100461.84
2023-04-26T01:05:05.384Z,100462.19
2023-04-26T01:07:33.953Z,100462.81
2023-04-26T01:10:05.585Z,100459.16
2023-04-26T01:12:34.362Z,100443.69
2023-04-26T01:15:05.546Z,100456.41
2023-04-26T01:17:37.715Z,100457.53
2023-04-26T01:20:09.932Z,100460.94
2023-04-26T01:22:39.673Z,100459.41
2023-04-26T01:25:09.379Z,100464.78
2023-04-26T01:27:37.739Z,100456.50
2023-04-26T01:30:08.403Z,100460.88
2023-04-26T01:32:37.133Z,100460.22
2023-04-26T01:35:07.504Z,100457.16
2023-04-26T01:37:35.958Z,100455.47
2023-04-26T01:40:07.611Z,100449.69
2023-04-26T01:42:36.103Z,100454.22
2023-04-26T01:45:05.363Z,100452.97
2023-04-26T01:47:53.839Z,100442.03
2023-04-26T01:50:22.516Z,100456.91
2023-04-26T01:52:50.956Z,100456.34
2023-04-26T01:55:22.030Z,100464.56
2023-04-26T01:57:50.513Z,100458.94
2023-04-26T02:00:19.648Z,100462.50
2023-04-26T02:02:50.822Z,100464.41
2023-04-26T02:05:19.300Z,100475.19
2023-04-26T02:07:47.713Z,100463.06
2023-04-26T02:10:16.056Z,100465.38
2023-04-26T02:12:45.854Z,100468.13
2023-04-26T02:15:14.294Z,100473.72
2023-04-26T02:17:43.576Z,100472.78
2023-04-26T02:20:13.503Z,100473.16
2023-04-26T02:22:41.852Z,100474.91
2023-04-26T02:25:11.715Z,100474.72
2023-04-26T02:27:40.275Z,100477.50
2023-04-26T02:30:11.376Z,100480.72
2023-04-26T02:32:39.983Z,100476.88
2023-04-26T02:35:09.612Z,100473.81
2023-04-26T02:37:38.510Z,100474.28
2023-04-26T02:40:10.990Z,100470.31
2023-04-26T02:42:39.623Z,100473.06
2023-04-26T02:45:10.794Z,100473.06
2023-04-26T02:47:39.906Z,100474.72
2023-04-26T02:50:09.683Z,100477.63
2023-04-26T02:52:39.154Z,100464.31
2023-04-26T02:55:09.543Z,100470.69
2023-04-26T02:57:38.924Z,100471.78
2023-04-26T03:00:14.130Z,100465.66
2023-04-26T03:02:43.110Z,100465.50
2023-04-26T03:05:11.727Z,100463.22
2023-04-26T03:07:40.289Z,100465.66
2023-04-26T03:10:10.156Z,100457.13
2023-04-26T03:12:39.951Z,100466.34
2023-04-26T03:15:11.069Z,100467.44
2023-04-26T03:17:41.534Z,100466.34
2023-04-26T03:20:12.202Z,100466.03
2023-04-26T03:22:41.115Z,100468.06
2023-04-26T03:25:10.615Z,100463.78
2023-04-26T03:27:39.314Z,100458.31
2023-04-26T03:30:11.108Z,100455.03
2023-04-26T03:32:41.085Z,100465.00
2023-04-26T03:35:11.366Z,100466.03
2023-04-26T03:37:40.796Z,100463.50
2023-04-26T03:40:14.014Z,100466.09
2023-04-26T03:42:42.526Z,100464.75
2023-04-26T03:45:12.932Z,100465.63
2023-04-26T03:47:41.460Z,100467.63
2023-04-26T03:50:11.938Z,100463.50
2023-04-26T03:52:40.367Z,100464.91
2023-04-26T03:55:11.937Z,100477.00
2023-04-26T03:57:41.258Z,100476.88
2023-04-26T04:00:14.186Z,100479.50
2023-04-26T04:02:45.512Z,100468.91
2023-04-26T04:05:22.826Z,100470.59
2023-04-26T04:07:52.204Z,100470.19
2023-04-26T04:10:22.964Z,100471.16
2023-04-26T04:12:52.295Z,100463.75
2023-04-26T04:15:22.766Z,100467.47
2023-04-26T04:17:51.302Z,100459.25
2023-04-26T04:20:21.202Z,100470.50
2023-04-26T04:22:49.679Z,100460.59
2023-04-26T04:25:21.271Z,100469.13
2023-04-26T04:27:50.318Z,100470.81
2023-04-26T04:30:19.027Z,100471.75
2023-04-26T04:32:48.932Z,100467.34
2023-04-26T04:35:18.901Z,100472.31
2023-04-26T04:37:50.099Z,100480.94
2023-04-26T04:40:18.914Z,100480.41
2023-04-26T04:42:49.322Z,100486.88
2023-04-26T04:45:19.232Z,100485.06
2023-04-26T04:47:49.345Z,100489.78
2023-04-26T04:50:17.925Z,100496.09
2023-04-26T04:52:46.478Z,100494.72
2023-04-26T04:55:15.126Z,100504.34
2023-04-26T04:57:44.701Z,100498.81
2023-04-26T05:00:15.952Z,100507.66
2023-04-26T05:02:53.418Z,100514.22
2023-04-26T05:05:22.010Z,100511.13
2023-04-26T05:07:50.616Z,100519.88
2023-04-26T05:10:19.426Z,100513.84
2023-04-26T05:12:48.081Z,100520.75
2023-04-26T05:15:16.973Z,100525.50
2023-04-26T05:17:45.884Z,100525.34
2023-04-26T05:20:20.986Z,100521.44
2023-04-26T05:22:50.238Z,100530.78
2023-04-26T05:25:21.588Z,100532.16
2023-04-26T05:27:53.001Z,100524.88
2023-04-26T05:30:28.512Z,100542.88
2023-04-26T05:33:19.790Z,100535.16
2023-04-26T05:35:59.814Z,100534.59
2023-04-26T05:38:28.631Z,100541.22
2023-04-26T05:40:57.176Z,100542.69
2023-04-26T05:43:25.783Z,100542.34
2023-04-26T05:45:55.747Z,100541.81
2023-04-26T05:48:25.812Z,100550.75
2023-04-26T05:50:54.563Z,100538.03
2023-04-26T05:53:24.689Z,100549.09
2023-04-26T05:55:53.949Z,100543.66
2023-04-26T05:58:22.837Z,100543.59
2023-04-26T06:00:51.861Z,100551.78
2023-04-26T06:03:20.461Z,100559.38
2023-04-26T06:05:49.456Z,100554.56
2023-04-26T06:08:17.951Z,100551.22
2023-04-26T06:10:47.793Z,100559.31
2023-04-26T06:13:16.248Z,100562.75
2023-04-26T06:15:45.417Z,100566.81
2023-04-26T06:18:13.968Z,100557.84
2023-04-26T06:20:42.536Z,100560.69
2023-04-26T06:23:11.593Z,100567.47
2023-04-26T06:25:44.236Z,100567.78
2023-04-26T06:28:14.340Z,100566.47
2023-04-26T06:30:44.002Z,100566.94
2023-04-26T06:33:12.641Z,100564.78
2023-04-26T06:35:42.280Z,100569.50
2023-04-26T06:38:13.025Z,100564.72
2023-04-26T06:40:41.709Z,100565.75
2023-04-26T06:43:11.051Z,100576.34
2023-04-26T06:46:07.480Z,100566.91
2023-04-26T06:48:36.029Z,100568.97
2023-04-26T06:51:08.582Z,100575.09
2023-04-26T06:53:37.193Z,100566.94
2023-04-26T06:56:06.220Z,100568.88
2023-04-26T06:58:34.745Z,100580.06
2023-04-26T07:01:09.143Z,100577.66
2023-04-26T07:03:38.432Z,100571.75
2023-04-26T07:06:07.433Z,100575.53
2023-04-26T07:08:35.909Z,100576.50
2023-04-26T07:11:11.225Z,100565.63
2023-04-26T07:13:39.711Z,100572.03
2023-04-26T07:16:09.786Z,100565.56
2023-04-26T07:18:38.298Z,100564.63
2023-04-26T07:21:06.781Z,100568.31
2023-04-26T07:23:35.259Z,100571.09
2023-04-26T07:26:04.523Z,100578.44
2023-04-26T07:28:33.236Z,100565.28
2023-04-26T07:31:03.092Z,100568.94
2023-04-26T07:33:33.013Z,100570.91
2023-04-26T07:36:01.932Z,100563.63
2023-04-26T07:38:30.412Z,100559.91
2023-04-26T07:40:58.882Z,100559.00
2023-04-26T07:43:28.463Z,100568.25
2023-04-26T07:45:56.944Z,100564.66
2023-04-26T07:48:25.460Z,100561.41
2023-04-26T07:50:55.626Z,100568.13
2023-04-26T07:53:24.157Z,100564.97
2023-04-26T07:55:53.577Z,100560.16
2023-04-26T07:58:21.959Z,100558.63
2023-04-26T08:00:50.911Z,100557.44
2023-04-26T08:03:19.477Z,100556.88
2023-04-26T08:05:48.306Z,100554.44
2023-04-26T08:08:19.013Z,100555.59
2023-04-26T08:10:47.523Z,100554.25
2023-04-26T08:13:16.080Z,100562.81
2023-04-26T08:15:44.455Z,100560.13
2023-04-26T08:18:13.268Z,100561.47
2023-04-26T08:20:41.845Z,100564.56
2023-04-26T08:23:10.471Z,100554.09
2023-04-26T08:25:40.475Z,100562.19
2023-04-26T08:28:09.115Z,100526.09
2023-04-26T08:30:37.686Z,100557.56
2023-04-26T08:33:06.911Z,100563.50
2023-04-26T08:35:35.706Z,100554.34
2023-04-26T08:38:04.101Z,100562.81
2023-04-26T08:40:33.030Z,100559.66
2023-04-26T08:43:02.730Z,100560.94
2023-04-26T08:45:31.860Z,100559.38
2023-04-26T08:48:05.772Z,100545.38
2023-04-26T08:50:35.881Z,100548.00
2023-04-26T08:53:04.516Z,100553.28
2023-04-26T08:55:35.097Z,100548.63
2023-04-26T08:58:06.959Z,100550.00
2023-04-26T09:00:35.811Z,100547.34
2023-04-26T09:03:04.522Z,100534.34
2023-04-26T09:05:34.713Z,100525.78
2023-04-26T09:08:03.655Z,100536.22
2023-04-26T09:10:33.301Z,100522.50
2023-04-26T09:13:02.175Z,100518.41
2023-04-26T09:15:32.401Z,100529.50
2023-04-26T09:18:18.359Z,100538.06
2023-04-26T09:20:47.712Z,100537.97
2023-04-26T09:23:17.259Z,100531.06
2023-04-26T09:25:46.783Z,100538.94
2023-04-26T09:28:23.463Z,100539.56
2023-04-26T09:30:53.250Z,100545.28
2023-04-26T09:33:22.111Z,100531.41
2023-04-26T09:35:50.511Z,100528.06
2023-04-26T09:38:20.157Z,100529.66
2023-04-26T09:40:50.361Z,100500.94
2023-04-26T09:43:20.287Z,100528.00
2023-04-26T09:45:51.487Z,100513.09
2023-04-26T09:48:23.882Z,100524.31
2023-04-26T09:50:55.121Z,100518.63
2023-04-26T09:53:34.340Z,100521.91
2023-04-26T09:56:11.493Z,100520.72
2023-04-26T09:58:42.106Z,100525.50
2023-04-26T10:01:11.707Z,100520.59
2023-04-26T10:03:43.070Z,100523.59
2023-04-26T10:06:11.958Z,100518.69
2023-04-26T10:08:40.529Z,100490.22
2023-04-26T10:11:10.629Z,100514.69
2023-04-26T10:13:40.045Z,100514.94
2023-04-26T10:16:10.256Z,100509.31
2023-04-26T10:18:39.287Z,100512.72
2023-04-26T10:21:18.036Z,100510.34
2023-04-26T10:23:47.217Z,100509.66
2023-04-26T10:26:52.939Z,100515.22
2023-04-26T10:29:22.397Z,100511.81
2023-04-26T10:32:11.987Z,100492.13
2023-04-26T10:34:41.644Z,100511.03
2023-04-26T10:37:16.196Z,100514.69
2023-04-26T10:39:45.997Z,100511.19
2023-04-26T10:42:27.518Z,100494.50
2023-04-26T10:44:56.738Z,100503.81
2023-04-26T10:47:29.611Z,100496.59
2023-04-26T10:50:10.170Z,100481.66
2023-04-26T10:53:06.826Z,100484.19
2023-04-26T10:55:41.792Z,100492.53
2023-04-26T10:58:28.887Z,100458.13
2023-04-26T11:01:07.178Z,100475.06
2023-04-26T11:03:36.276Z,100479.31
2023-04-26T11:06:09.648Z,100444.28
2023-04-26T11:08:39.470Z,100473.44
2023-04-26T11:11:11.722Z,100473.72
2023-04-26T11:13:42.159Z,100466.84
2023-04-26T11:16:11.981Z,100473.47
2023-04-26T11:18:42.198Z,100472.81
2023-04-26T11:21:12.182Z,100468.63
2023-04-26T11:23:42.128Z,100450.75
2023-04-26T11:26:11.141Z,100470.56
2023-04-26T11:28:41.240Z,100446.56
2023-04-26T11:31:09.675Z,100463.94
2023-04-26T11:33:38.205Z,100457.34
2023-04-26T11:36:07.764Z,100455.31
2023-04-26T11:38:36.115Z,100448.13
2023-04-26T11:41:06.259Z,100446.38
2023-04-26T11:43:38.841Z,100443.69
2023-04-26T11:46:10.005Z,100447.03
2023-04-26T11:48:40.065Z,100436.28
2023-04-26T11:51:10.176Z,100439.19
2023-04-26T11:53:39.334Z,100441.91
2023-04-26T11:56:17.817Z,100432.44
2023-04-26T11:58:48.361Z,100434.06
2023-04-26T12:01:23.569Z,100431.75
2023-04-26T12:03:53.959Z,100433.56
2023-04-26T12:06:30.759Z,100433.34
2023-04-26T12:08:59.669Z,100431.41
2023-04-26T12:11:29.450Z,100437.22
2023-04-26T12:14:00.632Z,100440.31
2023-04-26T12:16:29.137Z,100433.84
2023-04-26T12:18:57.983Z,100437.56
2023-04-26T12:21:30.337Z,100420.44
2023-04-26T12:23:59.287Z,100434.28
2023-04-26T12:29:21.031Z,100419.00
2023-04-26T12:31:49.718Z,100424.88
2023-04-26T12:34:18.530Z,100424.94
2023-04-26T12:36:47.098Z,100422.72
2023-04-26T12:39:16.888Z,100421.81
2023-04-26T12:41:46.695Z,100418.63
2023-04-26T12:44:15.795Z,100420.44
2023-04-26T12:46:46.066Z,100420.88
2023-04-26T12:49:14.687Z,100417.25
2023-04-26T12:51:43.168Z,100423.31
2023-04-26T12:54:11.657Z,100421.84
2023-04-26T12:56:43.952Z,100418.81
2023-04-26T12:59:12.666Z,100423.47
2023-04-26T13:01:41.209Z,100416.66
2023-04-26T13:04:11.405Z,100418.06
2023-04-26T13:06:40.126Z,100410.84
2023-04-26T13:09:12.746Z,100412.09
2023-04-26T13:11:41.193Z,100414.63
2023-04-26T13:14:10.033Z,100390.19
2023-04-26T13:16:42.338Z,100409.78
2023-04-26T13:19:12.211Z,100418.72
2023-04-26T13:21:42.071Z,100406.78
2023-04-26T13:24:10.596Z,100416.13
2023-04-26T13:26:38.997Z,100422.28
2023-04-26T13:29:07.378Z,100416.16
2023-04-26T13:31:36.918Z,100422.09
2023-04-26T13:34:07.041Z,100425.38
2023-04-26T13:36:37.256Z,100421.50
2023-04-26T13:39:07.312Z,100428.03
2023-04-26T13:41:36.352Z,100427.44
2023-04-26T13:44:05.749Z,100421.50
2023-04-26T13:46:34.186Z,100399.22
2023-04-26T13:49:02.673Z,100411.59
2023-04-26T13:51:32.418Z,100410.81
2023-04-26T13:54:02.127Z,100406.75
2023-04-26T13:56:31.173Z,100409.63
2023-04-26T13:59:00.103Z,100410.28
2023-04-26T14:01:29.429Z,100401.94
2023-04-26T14:03:58.176Z,100408.88
2023-04-26T14:06:27.045Z,100384.97
2023-04-26T14:08:55.662Z,100366.59
2023-04-26T14:11:25.449Z,100404.78
2023-04-26T14:13:56.081Z,100389.78
2023-04-26T14:16:24.760Z,100394.53
2023-04-26T14:18:53.379Z,100399.88
2023-04-26T14:21:22.009Z,100403.94
2023-04-26T14:23:50.540Z,100384.94
2023-04-26T14:26:20.326Z,100407.00
2023-04-26T14:28:50.021Z,100394.97
2023-04-26T14:31:19.777Z,100393.94
2023-04-26T14:33:48.277Z,100396.56
2023-04-26T14:36:16.707Z,100394.38
2023-04-26T14:38:46.247Z,100372.75
2023-04-26T14:41:16.662Z,100369.47
2023-04-26T14:43:46.154Z,100385.34
2023-04-26T14:46:16.016Z,100380.03
2023-04-26T14:48:44.751Z,100374.41
2023-04-26T14:51:13.127Z,100373.59
2023-04-26T14:53:41.570Z,100369.97
2023-04-26T14:56:09.984Z,100371.09
2023-04-26T14:58:38.466Z,100366.09
2023-04-26T15:01:07.718Z,100375.22
2023-04-26T15:03:38.225Z,100363.66
2023-04-26T15:06:07.221Z,100362.56
2023-04-26T15:08:35.946Z,100358.06
2023-04-26T15:11:05.430Z,100355.34
2023-04-26T15:13:33.867Z,100360.00
2023-04-26T15:16:07.549Z,100353.47
2023-04-26T15:18:37.899Z,100358.63
2023-04-26T15:21:06.560Z,100323.47
2023-04-26T15:23:35.004Z,100345.97
2023-04-26T15:26:04.379Z,100354.94
2023-04-26T15:28:32.979Z,100348.44
2023-04-26T15:31:05.184Z,100343.44
2023-04-26T15:33:33.592Z,100344.47
2023-04-26T15:36:03.450Z,100348.81
2023-04-26T15:38:32.167Z,100342.63
2023-04-26T15:41:00.589Z,100343.09
2023-04-26T15:43:28.973Z,100352.94
2023-04-26T15:45:57.658Z,100346.25
2023-04-26T15:48:27.091Z,100349.56
2023-04-26T15:50:56.806Z,100345.84
2023-04-26T15:53:27.057Z,100355.13
2023-04-26T15:55:55.519Z,100354.53
2023-04-26T15:58:24.008Z,100346.56
2023-04-26T16:00:52.403Z,100346.16
2023-04-26T16:03:21.692Z,100349.72
2023-04-26T16:05:50.552Z,100348.81
2023-04-26T16:08:38.842Z,100352.59
2023-04-26T16:11:10.083Z,100351.81
2023-04-26T16:13:38.711Z,100327.78
2023-04-26T16:16:08.987Z,100351.66
2023-04-26T16:18:39.623Z,100349.13
2023-04-26T16:21:09.940Z,100354.63
2023-04-26T16:23:39.255Z,100330.94
2023-04-26T16:26:09.554Z,100344.09
2023-04-26T16:28:38.093Z,100349.59
2023-04-26T16:31:07.265Z,100344.66
2023-04-26T16:33:35.654Z,100333.47
2023-04-26T16:36:04.148Z,100337.91
2023-04-26T16:38:32.568Z,100332.34
2023-04-26T16:41:02.472Z,100333.66
2023-04-26T16:43:33.019Z,100325.56
2023-04-26T16:46:02.865Z,100323.31
2023-04-26T16:48:33.324Z,100343.78
2023-04-26T16:51:03.511Z,100334.88
2023-04-26T16:53:34.239Z,100333.31
2023-04-26T16:56:02.688Z,100345.13
2023-04-26T16:58:32.528Z,100347.78
2023-04-26T17:01:00.884Z,100351.53
2023-04-26T17:03:29.674Z,100351.94
2023-04-26T17:05:58.264Z,100353.59
2023-04-26T17:08:27.267Z,100351.56
2023-04-26T17:10:55.716Z,100349.00
2023-04-26T17:13:24.278Z,100364.53
2023-04-26T17:15:55.693Z,100361.16
2023-04-26T17:18:24.075Z,100361.81
2023-04-26T17:20:56.254Z,100353.91
2023-04-26T17:23:24.794Z,100368.47
2023-04-26T17:25:55.111Z,100367.78
2023-04-26T17:28:23.883Z,100361.03
2023-04-26T17:30:53.724Z,100369.28
2023-04-26T17:33:22.145Z,100357.66
2023-04-26T17:35:50.580Z,100366.59
2023-04-26T17:38:19.458Z,100369.44
2023-04-26T17:40:49.185Z,100346.22
2023-04-26T17:43:17.779Z,100374.72
2023-04-26T17:45:46.469Z,100359.53
2023-04-26T17:48:17.119Z,100360.00
2023-04-26T17:50:45.576Z,100367.25
2023-04-26T17:53:14.034Z,100373.53
2023-04-26T17:55:42.424Z,100378.56
2023-04-26T17:58:11.026Z,100380.13
2023-04-26T18:00:39.489Z,100379.56
2023-04-26T18:03:08.055Z,100386.38
2023-04-26T18:05:37.891Z,100393.16
2023-04-26T18:08:06.662Z,100389.38
2023-04-26T18:10:35.163Z,100388.94
2023-04-26T18:13:03.671Z,100379.66
2023-04-26T18:15:32.221Z,100387.22
2023-04-26T18:18:00.680Z,100388.53
2023-04-26T18:20:29.188Z,100392.03
2023-04-26T18:22:58.947Z,100386.66
2023-04-26T18:25:27.302Z,100389.31
2023-04-26T18:27:55.732Z,100385.84
2023-04-26T18:30:24.205Z,100388.06
2023-04-26T18:32:53.761Z,100391.81
2023-04-26T18:35:22.266Z,100384.81
2023-04-26T18:37:50.743Z,100394.66
2023-04-26T18:40:20.905Z,100398.66
2023-04-26T18:42:49.263Z,100401.56
2023-04-26T18:45:17.931Z,100408.50
2023-04-26T18:47:46.365Z,100407.66
2023-04-26T18:50:14.838Z,100396.13
2023-04-26T18:52:43.177Z,100404.50
2023-04-26T18:55:11.758Z,100411.78
2023-04-26T18:57:41.544Z,100411.59
2023-04-26T19:00:11.959Z,100421.44
2023-04-26T19:02:41.201Z,100418.13
2023-04-26T19:05:11.804Z,100416.59
2023-04-26T19:07:40.800Z,100419.06
2023-04-26T19:10:10.934Z,100422.88
2023-04-26T19:12:40.859Z,100431.34
2023-04-26T19:15:10.154Z,100437.50
2023-04-26T19:17:38.661Z,100420.81
2023-04-26T19:20:12.426Z,100434.94
2023-04-26T19:22:41.899Z,100443.31
2023-04-26T19:25:11.404Z,100446.47
2023-04-26T19:27:41.931Z,100446.66
2023-04-26T19:30:11.861Z,100443.53
2023-04-26T19:32:40.435Z,100441.28
2023-04-26T19:35:09.922Z,100437.03
2023-04-26T19:37:38.367Z,100435.59
2023-04-26T19:40:09.218Z,100450.22
2023-04-26T19:42:37.636Z,100447.34
2023-04-26T19:45:09.167Z,100450.59
2023-04-26T19:47:37.838Z,100455.97
2023-04-26T19:50:07.490Z,100452.59
2023-04-26T19:52:35.934Z,100454.59
2023-04-26T19:55:04.465Z,100445.50
2023-04-26T19:57:32.898Z,100446.41
2023-04-26T20:00:01.359Z,100452.47
2023-04-26T20:02:31.404Z,100442.09
2023-04-26T20:04:59.969Z,100449.69
2023-04-26T20:07:28.424Z,100456.56
2023-04-26T20:09:56.810Z,100462.38
2023-04-26T20:12:25.225Z,100454.00
2023-04-26T20:14:53.755Z,100449.19
2023-04-26T20:17:22.201Z,100453.66
2023-04-26T20:19:52.473Z,100456.47
2023-04-26T20:22:21.101Z,100457.81
2023-04-26T20:24:49.463Z,100460.00
2023-04-26T20:27:18.097Z,100463.28
2023-04-26T20:29:48.193Z,100459.06
2023-04-26T20:32:16.803Z,100456.53
2023-04-26T20:34:45.196Z,100466.38
2023-04-26T20:37:14.931Z,100462.44
2023-04-26T20:39:43.541Z,100460.59
2023-04-26T20:42:11.974Z,100454.53
2023-04-26T20:44:40.332Z,100459.50
2023-04-26T20:47:08.865Z,100451.41
2023-04-26T20:49:37.374Z,100459.50
2023-04-26T20:52:06.427Z,100452.97
2023-04-26T20:54:36.324Z,100455.09
2023-04-26T20:57:05.149Z,100460.22
2023-04-26T20:59:33.609Z,100460.22
2023-04-26T21:02:02.945Z,100464.66
2023-04-26T21:04:31.652Z,100465.69
2023-04-26T21:07:00.285Z,100469.38
2023-04-26T21:09:28.659Z,100466.94
2023-04-26T21:11:58.346Z,100480.78
2023-04-26T21:14:26.891Z,100480.53
2023-04-26T21:16:55.266Z,100476.47
2023-04-26T21:19:24.296Z,100476.59
2023-04-26T21:21:52.675Z,100482.06
2023-04-26T21:24:21.459Z,100484.22
2023-04-26T21:26:50.056Z,100482.09
2023-04-26T21:29:20.207Z,100473.56
2023-04-26T21:31:48.759Z,100467.66
2023-04-26T21:34:17.336Z,100468.66
2023-04-26T21:36:45.801Z,100476.41
2023-04-26T21:39:14.397Z,100477.56
2023-04-26T21:41:43.036Z,100478.34
2023-04-26T21:44:13.311Z,100479.19
2023-04-26T21:46:43.102Z,100481.47
2023-04-26T21:49:11.968Z,100485.44
2023-04-26T21:51:43.527Z,100483.94
2023-04-26T21:54:15.377Z,100478.34
2023-04-26T21:56:43.895Z,100470.47
2023-04-26T21:59:12.689Z,100488.22
2023-04-26T22:01:42.856Z,100486.41
2023-04-26T22:04:18.781Z,100493.66
2023-04-26T22:06:47.438Z,100495.28
2023-04-26T22:09:15.874Z,100486.59
2023-04-26T22:11:44.467Z,100490.84
2023-04-26T22:14:12.855Z,100497.56
2023-04-26T22:16:42.790Z,100492.19
2023-04-26T22:19:11.375Z,100501.03
2023-04-26T22:21:39.984Z,100505.34
2023-04-26T22:24:09.571Z,100506.63
2023-04-26T22:26:37.985Z,100502.34
2023-04-26T22:29:07.173Z,100504.84
2023-04-26T22:31:35.647Z,100500.66
2023-04-26T22:34:05.552Z,100497.88
2023-04-26T22:36:34.910Z,100503.44
2023-04-26T22:39:03.409Z,100507.59
2023-04-26T22:41:31.817Z,100506.97
2023-04-26T22:44:00.222Z,100514.31
2023-04-26T22:46:31.680Z,100521.38
2023-04-26T22:49:01.555Z,100513.06
2023-04-26T22:51:32.377Z,100524.13
2023-04-26T22:54:00.967Z,100512.84
2023-04-26T22:56:29.370Z,100522.69
2023-04-26T22:58:57.870Z,100512.41
2023-04-26T23:01:26.406Z,100517.47
2023-04-26T23:03:54.896Z,100521.31
2023-04-26T23:06:23.518Z,100518.91
2023-04-26T23:08:54.360Z,100513.72
2023-04-26T23:11:22.930Z,100522.41
2023-04-26T23:13:52.847Z,100515.84
2023-04-26T23:16:21.560Z,100524.38
2023-04-26T23:18:50.412Z,100521.56
2023-04-26T23:21:18.820Z,100523.25
2023-04-26T23:23:47.184Z,100518.13
2023-04-26T23:26:16.997Z,100513.22
2023-04-26T23:28:45.757Z,100517.97
2023-04-26T23:31:14.244Z,100523.06
2023-04-26T23:33:42.952Z,100520.09
2023-04-26T23:36:11.568Z,100519.13
2023-04-26T23:38:39.986Z,100515.00
2023-04-26T23:41:08.418Z,100518.81
2023-04-26T23:43:38.194Z,100507.31
2023-04-26T23:46:06.931Z,100514.72
2023-04-26T23:48:35.944Z,100517.66
2023-04-26T23:51:04.767Z,100516.00
2023-04-26T23:53:33.234Z,100515.50
2023-04-26T23:56:01.604Z,100510.06
2023-04-26T23:58:30.790Z,100507.13
